sensor_id;sensor_type;location;lat;lon;timestamp;P1;durP1;ratioP1;P2;durP2;ratioP2
55069;SDS011;40967;52.070;8.596;2024-02-26T00:00:11;1.40;;;0.70;;
55069;SDS011;40967;52.070;8.596;2024-02-26T00:02:38;1.23;;;0.70;;
55069;SDS011;40967;52.070;8.596;2024-02-26T00:05:07;1.60;;;0.70;;
55069;SDS011;40967;52.070;8.596;2024-02-26T00:07:34;1.67;;;0.75;;
55069;SDS011;40967;52.070;8.596;2024-02-26T00:10:01;1.10;;;0.70;;
55069;SDS011;40967;52.070;8.596;2024-02-26T00:12:27;1.13;;;0.68;;
55069;SDS011;40967;52.070;8.596;2024-02-26T00:14:54;1.10;;;0.60;;
55069;SDS011;40967;52.070;8.596;2024-02-26T00:17:24;1.87;;;0.80;;
55069;SDS011;40967;52.070;8.596;2024-02-26T00:19:51;1.42;;;0.70;;
55069;SDS011;40967;52.070;8.596;2024-02-26T00:22:18;1.50;;;0.88;;
55069;SDS011;40967;52.070;8.596;2024-02-26T00:24:44;1.70;;;0.85;;
55069;SDS011;40967;52.070;8.596;2024-02-26T00:27:11;1.40;;;0.70;;
55069;SDS011;40967;52.070;8.596;2024-02-26T00:29:38;1.40;;;0.70;;
55069;SDS011;40967;52.070;8.596;2024-02-26T00:32:05;2.15;;;0.90;;
55069;SDS011;40967;52.070;8.596;2024-02-26T00:34:33;2.00;;;1.00;;
55069;SDS011;40967;52.070;8.596;2024-02-26T00:37:00;1.73;;;0.90;;
55069;SDS011;40967;52.070;8.596;2024-02-26T00:39:27;2.22;;;0.90;;
55069;SDS011;40967;52.070;8.596;2024-02-26T00:41:54;1.88;;;0.98;;
55069;SDS011;40967;52.070;8.596;2024-02-26T00:44:22;1.83;;;1.05;;
55069;SDS011;40967;52.070;8.596;2024-02-26T00:46:48;1.65;;;0.90;;
55069;SDS011;40967;52.070;8.596;2024-02-26T00:49:16;1.87;;;0.87;;
55069;SDS011;40967;52.070;8.596;2024-02-26T00:51:44;2.00;;;0.90;;
55069;SDS011;40967;52.070;8.596;2024-02-26T00:54:11;2.10;;;1.00;;
55069;SDS011;40967;52.070;8.596;2024-02-26T00:56:38;1.85;;;0.95;;
55069;SDS011;40967;52.070;8.596;2024-02-26T00:59:05;2.65;;;1.10;;
55069;SDS011;40967;52.070;8.596;2024-02-26T01:01:32;2.17;;;1.13;;
55069;SDS011;40967;52.070;8.596;2024-02-26T01:03:58;1.77;;;1.00;;
55069;SDS011;40967;52.070;8.596;2024-02-26T01:06:25;2.22;;;1.10;;
55069;SDS011;40967;52.070;8.596;2024-02-26T01:08:53;2.50;;;1.00;;
55069;SDS011;40967;52.070;8.596;2024-02-26T01:11:20;1.85;;;1.00;;
55069;SDS011;40967;52.070;8.596;2024-02-26T01:13:46;2.13;;;1.00;;
55069;SDS011;40967;52.070;8.596;2024-02-26T01:16:18;1.70;;;0.90;;
55069;SDS011;40967;52.070;8.596;2024-02-26T01:18:45;2.17;;;1.20;;
55069;SDS011;40967;52.070;8.596;2024-02-26T01:21:12;1.60;;;0.90;;
55069;SDS011;40967;52.070;8.596;2024-02-26T01:23:38;1.85;;;1.00;;
55069;SDS011;40967;52.070;8.596;2024-02-26T01:26:07;2.65;;;1.25;;
55069;SDS011;40967;52.070;8.596;2024-02-26T01:28:34;1.98;;;1.17;;
55069;SDS011;40967;52.070;8.596;2024-02-26T01:31:00;1.83;;;1.02;;
55069;SDS011;40967;52.070;8.596;2024-02-26T01:33:30;2.57;;;1.20;;
55069;SDS011;40967;52.070;8.596;2024-02-26T01:35:57;2.65;;;1.20;;
55069;SDS011;40967;52.070;8.596;2024-02-26T01:38:23;2.25;;;1.20;;
55069;SDS011;40967;52.070;8.596;2024-02-26T01:40:50;2.65;;;1.08;;
55069;SDS011;40967;52.070;8.596;2024-02-26T01:43:18;1.85;;;1.10;;
55069;SDS011;40967;52.070;8.596;2024-02-26T01:45:45;2.17;;;1.30;;
55069;SDS011;40967;52.070;8.596;2024-02-26T01:48:12;3.30;;;1.40;;
55069;SDS011;40967;52.070;8.596;2024-02-26T01:50:39;2.70;;;1.30;;
55069;SDS011;40967;52.070;8.596;2024-02-26T01:53:07;2.53;;;1.38;;
55069;SDS011;40967;52.070;8.596;2024-02-26T01:55:35;2.65;;;1.35;;
55069;SDS011;40967;52.070;8.596;2024-02-26T01:58:03;3.08;;;1.58;;
55069;SDS011;40967;52.070;8.596;2024-02-26T02:00:32;3.47;;;1.60;;
55069;SDS011;40967;52.070;8.596;2024-02-26T02:02:59;3.05;;;1.38;;
55069;SDS011;40967;52.070;8.596;2024-02-26T02:05:26;2.75;;;1.40;;
55069;SDS011;40967;52.070;8.596;2024-02-26T02:07:53;2.80;;;1.40;;
55069;SDS011;40967;52.070;8.596;2024-02-26T02:10:20;2.85;;;1.40;;
55069;SDS011;40967;52.070;8.596;2024-02-26T02:12:50;2.95;;;1.30;;
55069;SDS011;40967;52.070;8.596;2024-02-26T02:15:17;2.40;;;1.40;;
55069;SDS011;40967;52.070;8.596;2024-02-26T02:17:45;2.83;;;1.50;;
55069;SDS011;40967;52.070;8.596;2024-02-26T02:20:15;2.95;;;1.40;;
55069;SDS011;40967;52.070;8.596;2024-02-26T02:22:44;3.13;;;1.40;;
55069;SDS011;40967;52.070;8.596;2024-02-26T02:25:12;2.83;;;1.40;;
55069;SDS011;40967;52.070;8.596;2024-02-26T02:27:44;2.88;;;1.40;;
55069;SDS011;40967;52.070;8.596;2024-02-26T02:30:11;2.85;;;1.50;;
55069;SDS011;40967;52.070;8.596;2024-02-26T02:32:39;2.30;;;1.20;;
55069;SDS011;40967;52.070;8.596;2024-02-26T02:35:07;3.22;;;1.50;;
55069;SDS011;40967;52.070;8.596;2024-02-26T02:37:34;3.45;;;1.50;;
55069;SDS011;40967;52.070;8.596;2024-02-26T02:40:02;2.47;;;1.30;;
55069;SDS011;40967;52.070;8.596;2024-02-26T02:42:30;2.85;;;1.35;;
55069;SDS011;40967;52.070;8.596;2024-02-26T02:44:57;2.90;;;1.33;;
55069;SDS011;40967;52.070;8.596;2024-02-26T02:47:23;2.42;;;1.30;;
55069;SDS011;40967;52.070;8.596;2024-02-26T02:49:50;2.47;;;1.25;;
55069;SDS011;40967;52.070;8.596;2024-02-26T02:52:17;3.03;;;1.50;;
55069;SDS011;40967;52.070;8.596;2024-02-26T02:54:43;2.58;;;1.30;;
55069;SDS011;40967;52.070;8.596;2024-02-26T02:57:13;2.80;;;1.40;;
55069;SDS011;40967;52.070;8.596;2024-02-26T02:59:43;3.67;;;1.70;;
55069;SDS011;40967;52.070;8.596;2024-02-26T03:02:10;3.33;;;1.50;;
55069;SDS011;40967;52.070;8.596;2024-02-26T03:04:44;3.13;;;1.55;;
55069;SDS011;40967;52.070;8.596;2024-02-26T03:07:11;3.05;;;1.45;;
55069;SDS011;40967;52.070;8.596;2024-02-26T03:09:38;3.25;;;1.63;;
55069;SDS011;40967;52.070;8.596;2024-02-26T03:12:05;3.63;;;1.60;;
55069;SDS011;40967;52.070;8.596;2024-02-26T03:14:33;3.38;;;1.60;;
55069;SDS011;40967;52.070;8.596;2024-02-26T03:17:00;3.57;;;1.43;;
55069;SDS011;40967;52.070;8.596;2024-02-26T03:19:27;2.90;;;1.40;;
55069;SDS011;40967;52.070;8.596;2024-02-26T03:21:54;2.72;;;1.38;;
55069;SDS011;40967;52.070;8.596;2024-02-26T03:24:20;2.40;;;1.30;;
55069;SDS011;40967;52.070;8.596;2024-02-26T03:26:47;2.20;;;1.20;;
55069;SDS011;40967;52.070;8.596;2024-02-26T03:29:14;3.08;;;1.45;;
55069;SDS011;40967;52.070;8.596;2024-02-26T03:31:42;2.97;;;1.38;;
55069;SDS011;40967;52.070;8.596;2024-02-26T03:34:09;2.70;;;1.30;;
55069;SDS011;40967;52.070;8.596;2024-02-26T03:36:37;2.63;;;1.25;;
55069;SDS011;40967;52.070;8.596;2024-02-26T03:39:04;2.47;;;1.23;;
55069;SDS011;40967;52.070;8.596;2024-02-26T03:41:32;2.53;;;1.30;;
55069;SDS011;40967;52.070;8.596;2024-02-26T03:44:00;3.78;;;1.42;;
55069;SDS011;40967;52.070;8.596;2024-02-26T03:46:26;2.67;;;1.30;;
55069;SDS011;40967;52.070;8.596;2024-02-26T03:48:54;2.15;;;1.10;;
55069;SDS011;40967;52.070;8.596;2024-02-26T03:51:23;2.97;;;1.50;;
55069;SDS011;40967;52.070;8.596;2024-02-26T03:53:50;3.22;;;1.33;;
55069;SDS011;40967;52.070;8.596;2024-02-26T03:56:17;3.08;;;1.60;;
55069;SDS011;40967;52.070;8.596;2024-02-26T03:58:44;2.72;;;1.50;;
55069;SDS011;40967;52.070;8.596;2024-02-26T04:01:11;2.87;;;1.50;;
55069;SDS011;40967;52.070;8.596;2024-02-26T04:03:37;3.47;;;1.80;;
55069;SDS011;40967;52.070;8.596;2024-02-26T04:06:08;2.70;;;1.50;;
55069;SDS011;40967;52.070;8.596;2024-02-26T04:08:38;2.70;;;1.58;;
55069;SDS011;40967;52.070;8.596;2024-02-26T04:11:05;3.08;;;1.50;;
55069;SDS011;40967;52.070;8.596;2024-02-26T04:13:32;2.57;;;1.57;;
55069;SDS011;40967;52.070;8.596;2024-02-26T04:15:59;3.30;;;1.40;;
55069;SDS011;40967;52.070;8.596;2024-02-26T04:18:29;3.63;;;1.50;;
55069;SDS011;40967;52.070;8.596;2024-02-26T04:20:56;2.55;;;1.40;;
55069;SDS011;40967;52.070;8.596;2024-02-26T04:23:24;2.85;;;1.58;;
55069;SDS011;40967;52.070;8.596;2024-02-26T04:25:51;2.75;;;1.42;;
55069;SDS011;40967;52.070;8.596;2024-02-26T04:28:18;3.33;;;1.70;;
55069;SDS011;40967;52.070;8.596;2024-02-26T04:30:49;2.70;;;1.50;;
55069;SDS011;40967;52.070;8.596;2024-02-26T04:33:16;2.90;;;1.50;;
55069;SDS011;40967;52.070;8.596;2024-02-26T04:35:42;3.05;;;1.50;;
55069;SDS011;40967;52.070;8.596;2024-02-26T04:38:09;3.38;;;1.77;;
55069;SDS011;40967;52.070;8.596;2024-02-26T04:40:37;2.75;;;1.40;;
55069;SDS011;40967;52.070;8.596;2024-02-26T04:43:04;2.90;;;1.58;;
55069;SDS011;40967;52.070;8.596;2024-02-26T04:45:31;2.63;;;1.38;;
55069;SDS011;40967;52.070;8.596;2024-02-26T04:47:59;2.85;;;1.20;;
55069;SDS011;40967;52.070;8.596;2024-02-26T04:50:29;3.42;;;1.50;;
55069;SDS011;40967;52.070;8.596;2024-02-26T04:52:55;2.80;;;1.40;;
55069;SDS011;40967;52.070;8.596;2024-02-26T04:55:23;2.35;;;1.25;;
55069;SDS011;40967;52.070;8.596;2024-02-26T04:57:51;2.45;;;1.20;;
55069;SDS011;40967;52.070;8.596;2024-02-26T05:00:18;2.58;;;1.30;;
55069;SDS011;40967;52.070;8.596;2024-02-26T05:02:45;2.60;;;1.20;;
55069;SDS011;40967;52.070;8.596;2024-02-26T05:05:11;2.35;;;1.10;;
55069;SDS011;40967;52.070;8.596;2024-02-26T05:07:39;2.37;;;1.30;;
55069;SDS011;40967;52.070;8.596;2024-02-26T05:10:08;2.55;;;1.20;;
55069;SDS011;40967;52.070;8.596;2024-02-26T05:12:35;2.20;;;1.10;;
55069;SDS011;40967;52.070;8.596;2024-02-26T05:15:04;1.80;;;1.10;;
55069;SDS011;40967;52.070;8.596;2024-02-26T05:17:31;1.75;;;1.00;;
55069;SDS011;40967;52.070;8.596;2024-02-26T05:20:02;1.35;;;0.73;;
55069;SDS011;40967;52.070;8.596;2024-02-26T05:22:33;1.40;;;0.80;;
55069;SDS011;40967;52.070;8.596;2024-02-26T05:25:00;1.80;;;0.82;;
55069;SDS011;40967;52.070;8.596;2024-02-26T05:27:28;1.33;;;0.68;;
55069;SDS011;40967;52.070;8.596;2024-02-26T05:29:55;1.30;;;0.80;;
55069;SDS011;40967;52.070;8.596;2024-02-26T05:32:26;1.45;;;0.70;;
55069;SDS011;40967;52.070;8.596;2024-02-26T05:34:53;1.10;;;0.60;;
55069;SDS011;40967;52.070;8.596;2024-02-26T05:37:20;1.27;;;0.70;;
55069;SDS011;40967;52.070;8.596;2024-02-26T05:39:46;1.33;;;0.73;;
55069;SDS011;40967;52.070;8.596;2024-02-26T05:42:12;1.83;;;0.90;;
55069;SDS011;40967;52.070;8.596;2024-02-26T05:44:39;1.27;;;0.73;;
55069;SDS011;40967;52.070;8.596;2024-02-26T05:47:06;1.80;;;0.90;;
55069;SDS011;40967;52.070;8.596;2024-02-26T05:49:37;1.92;;;0.90;;
55069;SDS011;40967;52.070;8.596;2024-02-26T05:52:04;1.77;;;0.90;;
55069;SDS011;40967;52.070;8.596;2024-02-26T05:54:31;2.00;;;0.90;;
55069;SDS011;40967;52.070;8.596;2024-02-26T05:56:59;1.50;;;0.80;;
55069;SDS011;40967;52.070;8.596;2024-02-26T05:59:27;1.40;;;0.73;;
55069;SDS011;40967;52.070;8.596;2024-02-26T06:01:54;1.40;;;0.73;;
55069;SDS011;40967;52.070;8.596;2024-02-26T06:04:21;1.80;;;0.90;;
55069;SDS011;40967;52.070;8.596;2024-02-26T06:06:49;1.92;;;0.88;;
55069;SDS011;40967;52.070;8.596;2024-02-26T06:09:16;1.75;;;1.00;;
55069;SDS011;40967;52.070;8.596;2024-02-26T06:11:43;1.90;;;0.95;;
55069;SDS011;40967;52.070;8.596;2024-02-26T06:14:10;2.07;;;0.90;;
55069;SDS011;40967;52.070;8.596;2024-02-26T06:16:43;1.65;;;0.90;;
55069;SDS011;40967;52.070;8.596;2024-02-26T06:19:10;1.90;;;0.85;;
55069;SDS011;40967;52.070;8.596;2024-02-26T06:21:37;2.38;;;1.02;;
55069;SDS011;40967;52.070;8.596;2024-02-26T06:24:05;2.63;;;1.00;;
55069;SDS011;40967;52.070;8.596;2024-02-26T06:26:35;2.65;;;1.15;;
55069;SDS011;40967;52.070;8.596;2024-02-26T06:29:02;2.13;;;1.00;;
55069;SDS011;40967;52.070;8.596;2024-02-26T06:31:28;2.45;;;1.10;;
55069;SDS011;40967;52.070;8.596;2024-02-26T06:33:55;2.08;;;1.10;;
55069;SDS011;40967;52.070;8.596;2024-02-26T06:36:22;2.00;;;1.00;;
55069;SDS011;40967;52.070;8.596;2024-02-26T06:38:49;1.83;;;0.98;;
55069;SDS011;40967;52.070;8.596;2024-02-26T06:41:18;2.08;;;1.10;;
55069;SDS011;40967;52.070;8.596;2024-02-26T06:43:52;2.85;;;1.13;;
55069;SDS011;40967;52.070;8.596;2024-02-26T06:46:19;1.95;;;1.00;;
55069;SDS011;40967;52.070;8.596;2024-02-26T06:48:47;2.38;;;1.30;;
55069;SDS011;40967;52.070;8.596;2024-02-26T06:51:14;1.67;;;0.85;;
55069;SDS011;40967;52.070;8.596;2024-02-26T06:53:41;2.40;;;1.13;;
55069;SDS011;40967;52.070;8.596;2024-02-26T06:56:07;1.85;;;1.00;;
55069;SDS011;40967;52.070;8.596;2024-02-26T06:58:35;1.73;;;0.90;;
55069;SDS011;40967;52.070;8.596;2024-02-26T07:01:02;2.08;;;1.10;;
55069;SDS011;40967;52.070;8.596;2024-02-26T07:03:29;2.25;;;1.13;;
55069;SDS011;40967;52.070;8.596;2024-02-26T07:06:00;2.05;;;1.13;;
55069;SDS011;40967;52.070;8.596;2024-02-26T07:08:27;2.72;;;1.30;;
55069;SDS011;40967;52.070;8.596;2024-02-26T07:10:54;1.67;;;0.95;;
55069;SDS011;40967;52.070;8.596;2024-02-26T07:13:21;1.83;;;1.00;;
55069;SDS011;40967;52.070;8.596;2024-02-26T07:15:49;3.38;;;1.40;;
55069;SDS011;40967;52.070;8.596;2024-02-26T07:18:16;3.03;;;1.30;;
55069;SDS011;40967;52.070;8.596;2024-02-26T07:20:43;2.75;;;1.30;;
55069;SDS011;40967;52.070;8.596;2024-02-26T07:23:10;2.10;;;1.20;;
55069;SDS011;40967;52.070;8.596;2024-02-26T07:25:37;3.90;;;1.80;;
55069;SDS011;40967;52.070;8.596;2024-02-26T07:28:05;3.30;;;1.60;;
55069;SDS011;40967;52.070;8.596;2024-02-26T07:30:32;2.83;;;1.52;;
55069;SDS011;40967;52.070;8.596;2024-02-26T07:33:00;3.35;;;1.77;;
55069;SDS011;40967;52.070;8.596;2024-02-26T07:35:27;4.28;;;2.00;;
55069;SDS011;40967;52.070;8.596;2024-02-26T07:37:54;3.92;;;1.92;;
55069;SDS011;40967;52.070;8.596;2024-02-26T07:40:20;4.18;;;1.92;;
55069;SDS011;40967;52.070;8.596;2024-02-26T07:42:47;3.72;;;1.98;;
55069;SDS011;40967;52.070;8.596;2024-02-26T07:45:14;4.67;;;2.10;;
55069;SDS011;40967;52.070;8.596;2024-02-26T07:47:44;4.78;;;2.00;;
55069;SDS011;40967;52.070;8.596;2024-02-26T07:50:13;4.10;;;2.17;;
55069;SDS011;40967;52.070;8.596;2024-02-26T07:52:39;4.32;;;2.08;;
55069;SDS011;40967;52.070;8.596;2024-02-26T07:55:09;4.97;;;2.40;;
55069;SDS011;40967;52.070;8.596;2024-02-26T07:57:35;3.95;;;2.10;;
55069;SDS011;40967;52.070;8.596;2024-02-26T08:00:09;4.88;;;2.33;;
55069;SDS011;40967;52.070;8.596;2024-02-26T08:02:37;4.05;;;2.10;;
55069;SDS011;40967;52.070;8.596;2024-02-26T08:05:03;4.83;;;2.10;;
55069;SDS011;40967;52.070;8.596;2024-02-26T08:07:32;4.22;;;2.20;;
55069;SDS011;40967;52.070;8.596;2024-02-26T08:09:59;4.88;;;2.25;;
55069;SDS011;40967;52.070;8.596;2024-02-26T08:12:25;5.32;;;2.50;;
55069;SDS011;40967;52.070;8.596;2024-02-26T08:14:52;4.85;;;2.50;;
55069;SDS011;40967;52.070;8.596;2024-02-26T08:17:19;4.60;;;2.30;;
55069;SDS011;40967;52.070;8.596;2024-02-26T08:19:46;4.70;;;2.20;;
55069;SDS011;40967;52.070;8.596;2024-02-26T08:22:13;5.25;;;2.58;;
55069;SDS011;40967;52.070;8.596;2024-02-26T08:24:44;4.30;;;2.35;;
55069;SDS011;40967;52.070;8.596;2024-02-26T08:27:11;5.43;;;2.80;;
55069;SDS011;40967;52.070;8.596;2024-02-26T08:29:38;4.53;;;2.47;;
55069;SDS011;40967;52.070;8.596;2024-02-26T08:32:05;5.60;;;2.97;;
55069;SDS011;40967;52.070;8.596;2024-02-26T08:34:32;5.00;;;2.60;;
55069;SDS011;40967;52.070;8.596;2024-02-26T08:36:59;4.78;;;2.53;;
55069;SDS011;40967;52.070;8.596;2024-02-26T08:39:26;5.28;;;2.55;;
55069;SDS011;40967;52.070;8.596;2024-02-26T08:41:54;5.78;;;2.85;;
55069;SDS011;40967;52.070;8.596;2024-02-26T08:44:21;5.55;;;2.80;;
55069;SDS011;40967;52.070;8.596;2024-02-26T08:46:48;4.65;;;2.38;;
55069;SDS011;40967;52.070;8.596;2024-02-26T08:49:15;4.65;;;2.38;;
55069;SDS011;40967;52.070;8.596;2024-02-26T08:51:42;4.57;;;2.47;;
55069;SDS011;40967;52.070;8.596;2024-02-26T08:54:10;4.43;;;2.40;;
55069;SDS011;40967;52.070;8.596;2024-02-26T08:56:37;4.72;;;2.50;;
55069;SDS011;40967;52.070;8.596;2024-02-26T08:59:05;4.50;;;2.33;;
55069;SDS011;40967;52.070;8.596;2024-02-26T09:01:34;4.35;;;2.20;;
55069;SDS011;40967;52.070;8.596;2024-02-26T09:04:01;4.35;;;2.10;;
55069;SDS011;40967;52.070;8.596;2024-02-26T09:06:28;4.90;;;2.22;;
55069;SDS011;40967;52.070;8.596;2024-02-26T09:08:55;3.90;;;2.00;;
55069;SDS011;40967;52.070;8.596;2024-02-26T09:11:24;3.97;;;1.95;;
55069;SDS011;40967;52.070;8.596;2024-02-26T09:13:51;4.50;;;1.87;;
55069;SDS011;40967;52.070;8.596;2024-02-26T09:16:19;3.75;;;1.98;;
55069;SDS011;40967;52.070;8.596;2024-02-26T09:18:55;4.22;;;2.00;;
55069;SDS011;40967;52.070;8.596;2024-02-26T09:21:22;3.50;;;1.73;;
55069;SDS011;40967;52.070;8.596;2024-02-26T09:23:51;4.07;;;1.90;;
55069;SDS011;40967;52.070;8.596;2024-02-26T09:26:19;3.50;;;1.70;;
55069;SDS011;40967;52.070;8.596;2024-02-26T09:28:48;3.25;;;1.70;;
55069;SDS011;40967;52.070;8.596;2024-02-26T09:31:15;3.50;;;1.55;;
55069;SDS011;40967;52.070;8.596;2024-02-26T09:33:45;4.13;;;1.90;;
55069;SDS011;40967;52.070;8.596;2024-02-26T09:36:12;3.25;;;1.60;;
55069;SDS011;40967;52.070;8.596;2024-02-26T09:38:40;3.22;;;1.85;;
55069;SDS011;40967;52.070;8.596;2024-02-26T09:41:12;3.30;;;1.80;;
55069;SDS011;40967;52.070;8.596;2024-02-26T09:43:41;3.20;;;1.80;;
55069;SDS011;40967;52.070;8.596;2024-02-26T09:46:11;3.90;;;1.90;;
55069;SDS011;40967;52.070;8.596;2024-02-26T09:48:40;3.58;;;1.80;;
55069;SDS011;40967;52.070;8.596;2024-02-26T09:51:13;3.33;;;1.67;;
55069;SDS011;40967;52.070;8.596;2024-02-26T09:53:42;2.83;;;1.58;;
55069;SDS011;40967;52.070;8.596;2024-02-26T09:56:11;3.58;;;1.70;;
55069;SDS011;40967;52.070;8.596;2024-02-26T09:58:39;3.15;;;1.60;;
55069;SDS011;40967;52.070;8.596;2024-02-26T10:01:09;5.47;;;2.17;;
55069;SDS011;40967;52.070;8.596;2024-02-26T10:03:40;3.95;;;2.08;;
55069;SDS011;40967;52.070;8.596;2024-02-26T10:06:11;4.03;;;2.10;;
55069;SDS011;40967;52.070;8.596;2024-02-26T10:08:38;4.00;;;2.03;;
55069;SDS011;40967;52.070;8.596;2024-02-26T10:11:04;4.15;;;2.00;;
55069;SDS011;40967;52.070;8.596;2024-02-26T10:13:33;4.28;;;2.20;;
55069;SDS011;40967;52.070;8.596;2024-02-26T10:16:01;3.95;;;1.85;;
55069;SDS011;40967;52.070;8.596;2024-02-26T10:18:42;4.22;;;2.03;;
55069;SDS011;40967;52.070;8.596;2024-02-26T10:21:21;3.55;;;1.73;;
55069;SDS011;40967;52.070;8.596;2024-02-26T10:23:48;4.28;;;1.70;;
55069;SDS011;40967;52.070;8.596;2024-02-26T10:26:15;4.13;;;1.73;;
55069;SDS011;40967;52.070;8.596;2024-02-26T10:28:43;4.07;;;1.70;;
55069;SDS011;40967;52.070;8.596;2024-02-26T10:31:11;3.42;;;1.63;;
55069;SDS011;40967;52.070;8.596;2024-02-26T10:33:39;3.45;;;1.75;;
55069;SDS011;40967;52.070;8.596;2024-02-26T10:36:07;4.30;;;2.30;;
55069;SDS011;40967;52.070;8.596;2024-02-26T10:38:37;4.07;;;1.92;;
55069;SDS011;40967;52.070;8.596;2024-02-26T10:41:04;3.72;;;1.70;;
55069;SDS011;40967;52.070;8.596;2024-02-26T10:43:42;4.03;;;2.03;;
55069;SDS011;40967;52.070;8.596;2024-02-26T10:46:09;4.07;;;1.92;;
55069;SDS011;40967;52.070;8.596;2024-02-26T10:48:37;2.92;;;1.60;;
55069;SDS011;40967;52.070;8.596;2024-02-26T10:51:04;3.45;;;1.50;;
55069;SDS011;40967;52.070;8.596;2024-02-26T10:53:31;3.20;;;1.60;;
55069;SDS011;40967;52.070;8.596;2024-02-26T10:56:02;3.55;;;1.60;;
55069;SDS011;40967;52.070;8.596;2024-02-26T10:58:31;3.08;;;1.50;;
55069;SDS011;40967;52.070;8.596;2024-02-26T11:00:58;2.42;;;1.30;;
55069;SDS011;40967;52.070;8.596;2024-02-26T11:03:25;3.17;;;1.65;;
55069;SDS011;40967;52.070;8.596;2024-02-26T11:05:53;3.33;;;1.67;;
55069;SDS011;40967;52.070;8.596;2024-02-26T11:08:20;3.15;;;1.73;;
55069;SDS011;40967;52.070;8.596;2024-02-26T11:10:50;3.27;;;1.60;;
55069;SDS011;40967;52.070;8.596;2024-02-26T11:13:21;3.30;;;1.75;;
55069;SDS011;40967;52.070;8.596;2024-02-26T11:15:50;3.85;;;1.70;;
55069;SDS011;40967;52.070;8.596;2024-02-26T11:18:22;2.57;;;1.37;;
55069;SDS011;40967;52.070;8.596;2024-02-26T11:20:50;3.20;;;1.63;;
55069;SDS011;40967;52.070;8.596;2024-02-26T11:23:20;3.58;;;1.52;;
55069;SDS011;40967;52.070;8.596;2024-02-26T11:26:04;3.33;;;1.70;;
55069;SDS011;40967;52.070;8.596;2024-02-26T11:28:37;2.50;;;1.42;;
55069;SDS011;40967;52.070;8.596;2024-02-26T11:31:06;3.00;;;1.50;;
55069;SDS011;40967;52.070;8.596;2024-02-26T11:33:34;2.40;;;1.40;;
55069;SDS011;40967;52.070;8.596;2024-02-26T11:36:02;4.03;;;1.73;;
55069;SDS011;40967;52.070;8.596;2024-02-26T11:38:33;4.03;;;1.80;;
55069;SDS011;40967;52.070;8.596;2024-02-26T11:41:00;3.50;;;1.73;;
55069;SDS011;40967;52.070;8.596;2024-02-26T11:46:26;3.53;;;1.92;;
55069;SDS011;40967;52.070;8.596;2024-02-26T11:48:55;4.63;;;2.05;;
55069;SDS011;40967;52.070;8.596;2024-02-26T11:51:27;4.30;;;2.00;;
55069;SDS011;40967;52.070;8.596;2024-02-26T11:54:01;3.78;;;1.95;;
55069;SDS011;40967;52.070;8.596;2024-02-26T11:56:28;4.18;;;2.15;;
55069;SDS011;40967;52.070;8.596;2024-02-26T11:59:00;4.22;;;2.15;;
55069;SDS011;40967;52.070;8.596;2024-02-26T12:01:44;4.35;;;2.17;;
55069;SDS011;40967;52.070;8.596;2024-02-26T12:04:14;3.58;;;1.92;;
55069;SDS011;40967;52.070;8.596;2024-02-26T12:06:43;4.03;;;1.90;;
55069;SDS011;40967;52.070;8.596;2024-02-26T12:09:12;4.30;;;2.22;;
55069;SDS011;40967;52.070;8.596;2024-02-26T12:11:40;4.90;;;2.20;;
55069;SDS011;40967;52.070;8.596;2024-02-26T12:14:09;4.03;;;1.95;;
55069;SDS011;40967;52.070;8.596;2024-02-26T12:16:36;3.40;;;1.95;;
55069;SDS011;40967;52.070;8.596;2024-02-26T12:19:04;3.47;;;1.75;;
55069;SDS011;40967;52.070;8.596;2024-02-26T12:21:33;4.45;;;2.03;;
55069;SDS011;40967;52.070;8.596;2024-02-26T12:24:10;3.92;;;2.10;;
55069;SDS011;40967;52.070;8.596;2024-02-26T12:26:38;3.15;;;1.73;;
55069;SDS011;40967;52.070;8.596;2024-02-26T12:29:05;3.10;;;1.65;;
55069;SDS011;40967;52.070;8.596;2024-02-26T12:31:35;3.00;;;1.60;;
55069;SDS011;40967;52.070;8.596;2024-02-26T12:34:06;3.53;;;1.75;;
55069;SDS011;40967;52.070;8.596;2024-02-26T12:36:34;2.83;;;1.50;;
55069;SDS011;40967;52.070;8.596;2024-02-26T12:39:04;2.72;;;1.40;;
55069;SDS011;40967;52.070;8.596;2024-02-26T12:41:32;3.17;;;1.40;;
55069;SDS011;40967;52.070;8.596;2024-02-26T12:43:59;2.65;;;1.40;;
55069;SDS011;40967;52.070;8.596;2024-02-26T12:46:29;3.35;;;1.52;;
55069;SDS011;40967;52.070;8.596;2024-02-26T12:48:58;3.40;;;1.40;;
55069;SDS011;40967;52.070;8.596;2024-02-26T12:51:27;2.10;;;1.30;;
55069;SDS011;40967;52.070;8.596;2024-02-26T12:53:56;2.58;;;1.20;;
55069;SDS011;40967;52.070;8.596;2024-02-26T12:56:23;2.47;;;1.20;;
55069;SDS011;40967;52.070;8.596;2024-02-26T12:58:52;2.13;;;1.10;;
55069;SDS011;40967;52.070;8.596;2024-02-26T13:01:21;3.42;;;1.50;;
55069;SDS011;40967;52.070;8.596;2024-02-26T13:03:50;2.65;;;1.50;;
55069;SDS011;40967;52.070;8.596;2024-02-26T13:06:22;3.72;;;1.70;;
55069;SDS011;40967;52.070;8.596;2024-02-26T13:08:49;3.35;;;1.65;;
55069;SDS011;40967;52.070;8.596;2024-02-26T13:11:16;3.53;;;1.60;;
55069;SDS011;40967;52.070;8.596;2024-02-26T13:13:47;2.87;;;1.50;;
55069;SDS011;40967;52.070;8.596;2024-02-26T13:16:15;3.70;;;1.60;;
55069;SDS011;40967;52.070;8.596;2024-02-26T13:18:45;2.72;;;1.50;;
55069;SDS011;40967;52.070;8.596;2024-02-26T13:21:12;2.80;;;1.50;;
55069;SDS011;40967;52.070;8.596;2024-02-26T13:23:42;2.67;;;1.42;;
55069;SDS011;40967;52.070;8.596;2024-02-26T13:26:11;3.42;;;1.70;;
55069;SDS011;40967;52.070;8.596;2024-02-26T13:28:39;2.33;;;1.23;;
55069;SDS011;40967;52.070;8.596;2024-02-26T13:31:09;3.85;;;1.48;;
55069;SDS011;40967;52.070;8.596;2024-02-26T13:33:36;2.58;;;1.30;;
55069;SDS011;40967;52.070;8.596;2024-02-26T13:36:03;2.70;;;1.10;;
55069;SDS011;40967;52.070;8.596;2024-02-26T13:38:31;2.73;;;1.43;;
55069;SDS011;40967;52.070;8.596;2024-02-26T13:40:59;3.10;;;1.30;;
55069;SDS011;40967;52.070;8.596;2024-02-26T13:43:26;2.23;;;1.07;;
55069;SDS011;40967;52.070;8.596;2024-02-26T13:45:53;2.47;;;1.23;;
55069;SDS011;40967;52.070;8.596;2024-02-26T13:48:20;2.72;;;1.30;;
55069;SDS011;40967;52.070;8.596;2024-02-26T13:50:47;2.63;;;1.30;;
55069;SDS011;40967;52.070;8.596;2024-02-26T13:53:14;2.35;;;1.10;;
55069;SDS011;40967;52.070;8.596;2024-02-26T13:55:41;2.90;;;1.30;;
55069;SDS011;40967;52.070;8.596;2024-02-26T13:58:11;2.78;;;1.23;;
55069;SDS011;40967;52.070;8.596;2024-02-26T14:00:39;2.30;;;1.17;;
55069;SDS011;40967;52.070;8.596;2024-02-26T14:03:06;2.30;;;1.30;;
55069;SDS011;40967;52.070;8.596;2024-02-26T14:05:33;3.10;;;1.40;;
55069;SDS011;40967;52.070;8.596;2024-02-26T14:08:01;2.70;;;1.30;;
55069;SDS011;40967;52.070;8.596;2024-02-26T14:10:31;3.08;;;1.45;;
55069;SDS011;40967;52.070;8.596;2024-02-26T14:12:58;2.88;;;1.15;;
55069;SDS011;40967;52.070;8.596;2024-02-26T14:15:27;1.90;;;1.00;;
55069;SDS011;40967;52.070;8.596;2024-02-26T14:17:54;3.53;;;1.40;;
55069;SDS011;40967;52.070;8.596;2024-02-26T14:20:22;2.72;;;1.27;;
55069;SDS011;40967;52.070;8.596;2024-02-26T14:22:49;2.57;;;1.30;;
55069;SDS011;40967;52.070;8.596;2024-02-26T14:25:18;2.45;;;1.20;;
55069;SDS011;40967;52.070;8.596;2024-02-26T14:27:45;3.33;;;1.42;;
55069;SDS011;40967;52.070;8.596;2024-02-26T14:30:12;2.58;;;1.13;;
55069;SDS011;40967;52.070;8.596;2024-02-26T14:32:40;2.27;;;1.23;;
55069;SDS011;40967;52.070;8.596;2024-02-26T14:35:07;2.93;;;1.40;;
55069;SDS011;40967;52.070;8.596;2024-02-26T14:37:35;2.55;;;1.17;;
55069;SDS011;40967;52.070;8.596;2024-02-26T14:40:02;2.25;;;1.20;;
55069;SDS011;40967;52.070;8.596;2024-02-26T14:42:29;2.40;;;1.13;;
55069;SDS011;40967;52.070;8.596;2024-02-26T14:44:56;2.90;;;1.30;;
55069;SDS011;40967;52.070;8.596;2024-02-26T14:47:23;2.72;;;1.48;;
55069;SDS011;40967;52.070;8.596;2024-02-26T14:49:51;3.13;;;1.40;;
55069;SDS011;40967;52.070;8.596;2024-02-26T14:52:17;2.75;;;1.25;;
55069;SDS011;40967;52.070;8.596;2024-02-26T14:54:47;2.63;;;1.30;;